Airfield :
LOGIN :

Register | Disclaimer

   EN    FR    IT 

 










Legend :    VFR   Marginal VFR   IFR   Intensive IFR   Very Intensive IFR
Visi :
Ceiling :
>= 8 km
>= 3000ft
5 to 8 km
1000 to 3000 ft
1500m to 5 km
500 to 1000 ft
800 to 1500m
200 to 500 ft
< 800m
< 200 ft
Symbols :   Thunderstorms  Fog  Heavy snow  Heavy precipitations  Wind > 20 kt
SIGMETs :     Misc.  Thunderstorms  Icing  Turbulence  Mountain Waves  Volcanic Ashes







- Airport Elevation : 436 ft
- IATA code : BTS


LZIB - Bratislava

CURRENT METAR :
  • 121730Z 28013KT CAVOK 06/M00 Q1013 NOSIG

EXPIRED METARs :
  • 121700Z 28017KT CAVOK 06/M01 Q1013 NOSIG
  • 121630Z 27014KT CAVOK 07/M00 Q1013 NOSIG
  • 121600Z 28012KT 250V310 CAVOK 07/M00 Q1012 NOSIG
  • 121530Z 27013KT CAVOK 07/00 Q1012 NOSIG
  • 121500Z 28014KT 9999 FEW042 BKN058 08/02 Q1011 NOSIG

TAF TAF LZIB
Valid from the 12 at 18:00 until the 13 at 18:00 UTC


121700Z 1218/1318 32006KT 9999 FEW043 BKN070
PROB40
TEMPO 1218/1222 28014KT -RA FEW035 OVC050
BECMG 1300/1302 CAVOK
BECMG 1312/1314 20005KT
No reported NOTAMs for that airfield.



MET'MAP, your aeronautical weather chart ! - Copyright ORBIFLY December 2007 - Disclaimer

ORBIFLY MET'MAP TEAM :

Programming & Development : Alexandra Zaïnal
Concept & Development : Baudouin d'Aumeries
Co-Development & Prog : Marc-Olivier Méhu
Technical & hardware support : Manuel Goepfert

Contact : metmap@orbifly.com




SOURCES & CREDITS :

   NOAA